Time;durP1;ratioP1;P1;durP2;ratioP2;P2;SDS_P1;SDS_P2;PMS_P1;PMS_P2;Temp;Humidity;BMP_temperature;BMP_pressure;BME280_temperature;BME280_humidity;BME280_pressure;Samples;Min_cycle;Max_cycle;Signal;HPM_P1;HPM_P2
2022/09/02 00:02:21;;;;;;;;;8.00;7.33;;;;;;;;5096860;27;45433;-71
2022/09/02 00:04:46;;;;;;;;;10.00;10.00;;;;;;;;5098506;27;46303;-72
2022/09/02 00:07:11;;;;;;;;;13.00;11.00;;;;;;;;5121400;27;45628;-70
2022/09/02 00:09:39;;;;;;;;;7.33;7.00;;;;;;;;5121567;27;45900;-71
2022/09/02 00:12:05;;;;;;;;;7.67;7.00;;;;;;;;5121693;27;45230;-71
2022/09/02 00:14:33;;;;;;;;;9.33;8.33;;;;;;;;5121048;27;46561;-70
2022/09/02 00:16:59;;;;;;;;;9.33;7.67;;;;;;;;5121005;27;45390;-70
2022/09/02 00:19:26;;;;;;;;;11.00;7.33;;;;;;;;5121566;27;45445;-71
2022/09/02 00:21:51;;;;;;;;;9.00;8.67;;;;;;;;5118442;27;45444;-71
2022/09/02 00:24:17;;;;;;;;;10.33;8.00;;;;;;;;5100631;27;45533;-71
2022/09/02 00:26:42;;;;;;;;;8.67;8.67;;;;;;;;5102308;27;45311;-71
2022/09/02 00:29:08;;;;;;;;;6.00;5.00;;;;;;;;5121159;27;45340;-71
2022/09/02 00:31:35;;;;;;;;;12.33;10.00;;;;;;;;5121276;27;45627;-71
2022/09/02 00:34:00;;;;;;;;;7.00;7.00;;;;;;;;5120870;27;46532;-71
2022/09/02 00:36:26;;;;;;;;;7.67;6.67;;;;;;;;5120978;27;45351;-71
2022/09/02 00:38:51;;;;;;;;;10.00;8.33;;;;;;;;5120756;27;45287;-71
2022/09/02 00:41:18;;;;;;;;;7.00;5.00;;;;;;;;5121191;27;45369;-71
2022/09/02 00:43:49;;;;;;;;;7.33;7.33;;;;;;;;5120991;27;46139;-71
2022/09/02 00:46:15;;;;;;;;;8.67;7.00;;;;;;;;5120703;27;45214;-71
2022/09/02 00:48:45;;;;;;;;;8.00;7.67;;;;;;;;5120693;27;45386;-71
2022/09/02 00:51:10;;;;;;;;;9.00;9.00;;;;;;;;5121134;27;45432;-71
2022/09/02 00:53:38;;;;;;;;;10.00;9.00;;;;;;;;5120607;27;45322;-71
2022/09/02 00:56:04;;;;;;;;;9.67;8.00;;;;;;;;5120629;27;45243;-71
2022/09/02 00:58:31;;;;;;;;;9.00;9.00;;;;;;;;5120825;27;45236;-71
2022/09/02 01:00:58;;;;;;;;;10.33;9.00;;;;;;;;5101901;27;45531;-71
2022/09/02 01:03:24;;;;;;;;;9.67;9.00;;;;;;;;5120408;27;46494;-71
2022/09/02 01:05:51;;;;;;;;;8.33;7.67;;;;;;;;5120430;27;45342;-71
2022/09/02 01:08:18;;;;;;;;;14.00;8.67;;;;;;;;5120126;27;45497;-71
2022/09/02 01:10:45;;;;;;;;;13.00;9.00;;;;;;;;5120814;27;45215;-71
2022/09/02 01:13:18;;;;;;;;;7.00;7.00;;;;;;;;5120332;27;45433;-70
2022/09/02 01:15:45;;;;;;;;;10.00;8.33;;;;;;;;5120264;27;45296;-71
2022/09/02 01:18:14;;;;;;;;;8.33;8.33;;;;;;;;5120354;27;45314;-70
2022/09/02 01:20:39;;;;;;;;;10.00;7.67;;;;;;;;5120689;27;45523;-71
2022/09/02 01:23:04;;;;;;;;;12.00;9.33;;;;;;;;5106737;27;45633;-71
2022/09/02 01:25:31;;;;;;;;;9.00;9.00;;;;;;;;5099630;27;45339;-71
2022/09/02 01:28:01;;;;;;;;;8.33;8.33;;;;;;;;5099718;27;45290;-71
2022/09/02 01:30:27;;;;;;;;;10.00;9.00;;;;;;;;5118245;27;45411;-71
2022/09/02 01:32:52;;;;;;;;;8.33;8.00;;;;;;;;5119797;27;47191;-71
2022/09/02 01:35:17;;;;;;;;;9.67;8.00;;;;;;;;5119946;27;45331;-71
2022/09/02 01:37:44;;;;;;;;;11.67;9.33;;;;;;;;5120433;27;45450;-71
2022/09/02 01:40:10;;;;;;;;;9.33;7.67;;;;;;;;5120225;27;45363;-71
2022/09/02 01:42:37;;;;;;;;;12.00;9.00;;;;;;;;5119951;27;45359;-71
2022/09/02 01:45:03;;;;;;;;;8.67;8.67;;;;;;;;5119861;27;45349;-71
2022/09/02 01:47:29;;;;;;;;;8.00;8.00;;;;;;;;5119835;27;45557;-71
2022/09/02 01:49:54;;;;;;;;;8.33;7.67;;;;;;;;5120059;27;45468;-71
2022/09/02 01:52:20;;;;;;;;;12.33;9.00;;;;;;;;5119693;27;45515;-71
2022/09/02 01:54:45;;;;;;;;;8.33;7.67;;;;;;;;5119765;27;45203;-71
2022/09/02 01:57:11;;;;;;;;;11.33;9.00;;;;;;;;5119740;27;45337;-71
2022/09/02 01:59:36;;;;;;;;;9.67;9.67;;;;;;;;5119840;27;45361;-70
2022/09/02 02:02:02;;;;;;;;;10.00;9.33;;;;;;;;5119576;27;46174;-71
2022/09/02 02:04:27;;;;;;;;;11.67;7.67;;;;;;;;5119584;27;45235;-71
2022/09/02 02:06:53;;;;;;;;;12.00;10.00;;;;;;;;5119312;27;45473;-70
2022/09/02 02:09:18;;;;;;;;;10.00;9.00;;;;;;;;5119713;27;45388;-71
2022/09/02 02:11:44;;;;;;;;;7.67;7.33;;;;;;;;5119388;27;45396;-72
2022/09/02 02:14:11;;;;;;;;;9.67;9.00;;;;;;;;5119403;27;45510;-71
2022/09/02 02:16:36;;;;;;;;;9.00;7.33;;;;;;;;5119416;27;45400;-71
2022/09/02 02:19:02;;;;;;;;;7.67;7.67;;;;;;;;5119676;27;45415;-71
2022/09/02 02:21:27;;;;;;;;;8.00;8.00;;;;;;;;5119065;27;46346;-71
2022/09/02 02:23:53;;;;;;;;;11.33;9.33;;;;;;;;5099003;27;45322;-71
2022/09/02 02:26:19;;;;;;;;;5.67;5.67;;;;;;;;5098867;27;45231;-71
2022/09/02 02:28:44;;;;;;;;;10.33;10.33;;;;;;;;5098276;27;45188;-71
2022/09/02 02:31:09;;;;;;;;;10.00;8.00;;;;;;;;5110254;27;46288;-71
2022/09/02 02:33:34;;;;;;;;;9.00;8.33;;;;;;;;5119002;27;45331;-71
2022/09/02 02:36:03;;;;;;;;;12.33;10.00;;;;;;;;5119015;27;45873;-70
2022/09/02 02:38:28;;;;;;;;;10.00;8.33;;;;;;;;5119231;27;45398;-70
2022/09/02 02:40:56;;;;;;;;;9.67;9.67;;;;;;;;5119048;27;45385;-70
2022/09/02 02:43:21;;;;;;;;;11.67;8.00;;;;;;;;5119262;27;45382;-71
2022/09/02 02:45:46;;;;;;;;;11.00;9.00;;;;;;;;5119095;27;45390;-70
2022/09/02 02:48:12;;;;;;;;;8.67;8.67;;;;;;;;5118896;27;45527;-71
2022/09/02 02:50:37;;;;;;;;;10.67;10.33;;;;;;;;5105432;27;47277;-70
2022/09/02 02:53:02;;;;;;;;;7.33;7.00;;;;;;;;5109408;27;45383;-71
2022/09/02 02:55:28;;;;;;;;;12.00;10.00;;;;;;;;5098431;27;45298;-70
2022/09/02 02:57:53;;;;;;;;;11.67;9.00;;;;;;;;5098381;27;45486;-71
2022/09/02 03:00:24;;;;;;;;;10.00;8.67;;;;;;;;5098213;27;46473;-71
2022/09/02 03:02:53;;;;;;;;;11.67;8.33;;;;;;;;5098124;27;45284;-71
2022/09/02 03:05:19;;;;;;;;;11.33;8.00;;;;;;;;5098187;27;45199;-71
2022/09/02 03:07:44;;;;;;;;;10.67;10.67;;;;;;;;5098022;27;45278;-70
2022/09/02 03:10:10;;;;;;;;;9.00;9.00;;;;;;;;5098248;27;46232;-71
2022/09/02 03:12:37;;;;;;;;;7.67;6.67;;;;;;;;5098046;27;45374;-71
2022/09/02 03:15:03;;;;;;;;;10.33;9.67;;;;;;;;5098085;27;45237;-70
2022/09/02 03:17:28;;;;;;;;;9.33;7.33;;;;;;;;5098265;27;45344;-71
2022/09/02 03:19:57;;;;;;;;;12.67;10.00;;;;;;;;5097734;27;46252;-70
2022/09/02 03:22:23;;;;;;;;;10.33;10.33;;;;;;;;5097772;27;45383;-71
2022/09/02 03:24:48;;;;;;;;;8.33;7.33;;;;;;;;5097844;27;45374;-71
2022/09/02 03:27:13;;;;;;;;;9.00;9.00;;;;;;;;5098340;27;45204;-71
2022/09/02 03:29:38;;;;;;;;;11.67;9.67;;;;;;;;5097638;27;45612;-71
2022/09/02 03:32:04;;;;;;;;;11.00;10.33;;;;;;;;5097857;27;45253;-71
2022/09/02 03:34:30;;;;;;;;;13.33;9.33;;;;;;;;5097406;27;45244;-71
2022/09/02 03:36:55;;;;;;;;;9.33;9.33;;;;;;;;5097966;27;45459;-71
2022/09/02 03:39:20;;;;;;;;;11.00;9.00;;;;;;;;5097708;27;45694;-70
2022/09/02 03:41:48;;;;;;;;;12.67;11.00;;;;;;;;5100784;27;45332;-70
2022/09/02 03:44:13;;;;;;;;;13.00;11.67;;;;;;;;5101354;27;45349;-73
2022/09/02 03:46:39;;;;;;;;;10.67;10.00;;;;;;;;5101444;27;45450;-72
2022/09/02 03:49:04;;;;;;;;;11.00;11.00;;;;;;;;5100954;27;45488;-72
2022/09/02 03:51:30;;;;;;;;;8.67;8.67;;;;;;;;5101218;27;45383;-72
2022/09/02 03:53:55;;;;;;;;;12.67;11.33;;;;;;;;5101159;27;45303;-72
2022/09/02 03:56:21;;;;;;;;;10.67;10.67;;;;;;;;5101109;27;45294;-72
2022/09/02 03:58:48;;;;;;;;;8.00;8.00;;;;;;;;5100921;27;45510;-72
2022/09/02 04:01:21;;;;;;;;;13.00;13.00;;;;;;;;5100991;27;45340;-72
2022/09/02 04:03:47;;;;;;;;;7.00;7.00;;;;;;;;5100842;27;45458;-73
2022/09/02 04:06:12;;;;;;;;;14.67;13.67;;;;;;;;5101133;27;45305;-72
2022/09/02 04:08:40;;;;;;;;;12.00;12.00;;;;;;;;5100400;27;47465;-73
2022/09/02 04:11:10;;;;;;;;;11.33;9.67;;;;;;;;5100831;27;45269;-73
2022/09/02 04:13:35;;;;;;;;;9.67;9.67;;;;;;;;5100803;27;45272;-73
2022/09/02 04:16:21;;;;;;;;;11.67;9.00;;;;;;;;5100941;27;45689;-72
2022/09/02 04:18:47;;;;;;;;;12.00;10.33;;;;;;;;5100381;27;46261;-72
2022/09/02 04:21:12;;;;;;;;;11.33;10.33;;;;;;;;5100693;27;45337;-72
2022/09/02 04:23:37;;;;;;;;;12.67;10.33;;;;;;;;5100738;27;45298;-72
2022/09/02 04:26:07;;;;;;;;;13.33;11.00;;;;;;;;5100879;27;45334;-73
2022/09/02 04:28:33;;;;;;;;;14.00;11.33;;;;;;;;5100465;27;45494;-72
2022/09/02 04:30:58;;;;;;;;;12.33;11.33;;;;;;;;5100350;27;45413;-72
2022/09/02 04:33:23;;;;;;;;;11.33;10.67;;;;;;;;5100577;27;45371;-73
2022/09/02 04:35:49;;;;;;;;;13.00;13.00;;;;;;;;5100382;27;45469;-73
2022/09/02 04:38:15;;;;;;;;;12.33;11.00;;;;;;;;5100327;27;47671;-73
2022/09/02 04:40:42;;;;;;;;;9.33;9.33;;;;;;;;5100232;27;45503;-73
2022/09/02 04:43:07;;;;;;;;;10.67;10.67;;;;;;;;5100336;27;45157;-74
2022/09/02 04:45:32;;;;;;;;;13.67;11.67;;;;;;;;5100653;27;45473;-74
2022/09/02 04:47:58;;;;;;;;;11.00;10.67;;;;;;;;5100169;27;45728;-73
2022/09/02 04:50:23;;;;;;;;;21.00;13.00;;;;;;;;5099942;27;45413;-73
2022/09/02 04:52:48;;;;;;;;;12.00;10.33;;;;;;;;5100022;27;45256;-73
2022/09/02 04:55:13;;;;;;;;;14.33;11.33;;;;;;;;5100427;27;45405;-73
2022/09/02 04:57:39;;;;;;;;;12.67;11.33;;;;;;;;5100085;27;45439;-73
2022/09/02 05:00:05;;;;;;;;;11.67;11.67;;;;;;;;5099981;27;45247;-75
2022/09/02 05:02:31;;;;;;;;;15.00;12.67;;;;;;;;5100133;27;45218;-76
2022/09/02 05:04:57;;;;;;;;;14.67;13.00;;;;;;;;5099835;27;45334;-76
2022/09/02 05:07:22;;;;;;;;;11.33;11.33;;;;;;;;5099718;27;45461;-73
2022/09/02 05:09:48;;;;;;;;;12.33;10.33;;;;;;;;5099780;27;45297;-75
2022/09/02 05:12:13;;;;;;;;;14.67;13.33;;;;;;;;5100009;27;45291;-72
2022/09/02 05:14:38;;;;;;;;;20.00;12.67;;;;;;;;5099862;27;45488;-72
2022/09/02 05:17:03;;;;;;;;;13.33;10.33;;;;;;;;5099723;27;46546;-72
2022/09/02 05:19:29;;;;;;;;;10.67;10.67;;;;;;;;5099480;27;45307;-72
2022/09/02 05:21:58;;;;;;;;;12.00;12.00;;;;;;;;5099739;27;45493;-72
2022/09/02 05:24:23;;;;;;;;;19.67;15.00;;;;;;;;5099737;27;45369;-71
2022/09/02 05:26:49;;;;;;;;;13.67;12.33;;;;;;;;5099509;27;46381;-71
2022/09/02 05:29:17;;;;;;;;;12.67;12.67;;;;;;;;5099433;27;45403;-72
2022/09/02 05:31:43;;;;;;;;;15.33;15.33;;;;;;;;5099567;27;45223;-72
2022/09/02 05:34:08;;;;;;;;;14.33;13.67;;;;;;;;5099767;27;45472;-72
2022/09/02 05:36:33;;;;;;;;;20.67;20.00;;;;;;;;5099048;27;46384;-72
2022/09/02 05:38:59;;;;;;;;;22.67;16.33;;;;;;;;5099456;27;45398;-71
2022/09/02 05:41:25;;;;;;;;;18.67;13.67;;;;;;;;5099343;27;45392;-68
2022/09/02 05:43:51;;;;;;;;;15.33;13.33;;;;;;;;5099450;27;45371;-68
2022/09/02 05:46:17;;;;;;;;;19.00;15.00;;;;;;;;5099312;27;45403;-67
2022/09/02 05:51:27;;;;;;;;;22.67;20.33;;;;;;;;5099082;27;45692;-68
2022/09/02 05:53:53;;;;;;;;;14.67;12.00;;;;;;;;5081086;27;45403;-68
2022/09/02 05:56:18;;;;;;;;;15.67;15.00;;;;;;;;5098931;27;47159;-67
2022/09/02 05:58:43;;;;;;;;;16.67;16.67;;;;;;;;5098947;27;45497;-68
2022/09/02 06:01:09;;;;;;;;;19.00;16.33;;;;;;;;5098984;27;45356;-68
2022/09/02 06:03:35;;;;;;;;;20.00;15.67;;;;;;;;5098046;27;45449;-71
2022/09/02 06:06:00;;;;;;;;;17.00;16.67;;;;;;;;5098526;27;46030;-71
2022/09/02 06:08:25;;;;;;;;;18.33;17.33;;;;;;;;5098661;27;45208;-71
2022/09/02 06:10:50;;;;;;;;;16.67;15.33;;;;;;;;5098704;27;45378;-71
2022/09/02 06:13:21;;;;;;;;;30.33;25.33;;;;;;;;5098814;27;45472;-72
2022/09/02 06:15:46;;;;;;;;;15.67;13.67;;;;;;;;5098604;27;46318;-72
2022/09/02 06:18:12;;;;;;;;;18.67;16.33;;;;;;;;5098487;27;45426;-72
2022/09/02 06:20:41;;;;;;;;;21.67;19.33;;;;;;;;5098502;27;45336;-73
2022/09/02 06:23:06;;;;;;;;;16.33;15.00;;;;;;;;5098837;27;45348;-72
2022/09/02 06:25:34;;;;;;;;;22.33;18.00;;;;;;;;5098450;27;46599;-72
2022/09/02 06:27:59;;;;;;;;;15.67;12.67;;;;;;;;5098066;27;45472;-72
2022/09/02 06:30:25;;;;;;;;;19.33;16.33;;;;;;;;5098581;27;45276;-72
2022/09/02 06:32:50;;;;;;;;;17.67;16.67;;;;;;;;5098660;27;45288;-71
2022/09/02 06:35:15;;;;;;;;;20.33;15.33;;;;;;;;5097997;27;45554;-71
2022/09/02 06:37:40;;;;;;;;;17.00;16.33;;;;;;;;5098503;27;45300;-72
2022/09/02 06:40:06;;;;;;;;;16.33;14.67;;;;;;;;5098549;27;45421;-72
2022/09/02 06:42:31;;;;;;;;;24.67;17.67;;;;;;;;5098505;27;45295;-72
2022/09/02 06:44:56;;;;;;;;;22.67;17.33;;;;;;;;5098353;27;47442;-72
2022/09/02 06:47:22;;;;;;;;;19.00;17.67;;;;;;;;5098197;27;45440;-73
2022/09/02 06:49:47;;;;;;;;;18.33;16.33;;;;;;;;5098605;27;45363;-73
2022/09/02 06:52:13;;;;;;;;;22.00;16.33;;;;;;;;5098223;27;45571;-72
2022/09/02 06:54:38;;;;;;;;;20.67;18.67;;;;;;;;5097957;27;46434;-74
2022/09/02 06:57:03;;;;;;;;;16.33;16.33;;;;;;;;5116384;27;45527;-72
2022/09/02 06:59:28;;;;;;;;;24.33;22.67;;;;;;;;5118885;27;45375;-73
2022/09/02 07:01:54;;;;;;;;;20.33;18.33;;;;;;;;5119129;27;45344;-72
2022/09/02 07:07:04;;;;;;;;;17.33;15.67;;;;;;;;5118190;27;45693;-72
2022/09/02 07:09:32;;;;;;;;;15.33;13.67;;;;;;;;5118857;27;45249;-73
2022/09/02 07:11:58;;;;;;;;;18.00;15.33;;;;;;;;5118824;27;45282;-74
2022/09/02 07:14:26;;;;;;;;;15.67;15.33;;;;;;;;5120899;27;47103;-72
2022/09/02 07:16:52;;;;;;;;;20.00;16.67;;;;;;;;5125332;27;45337;-72
2022/09/02 07:19:18;;;;;;;;;16.00;13.67;;;;;;;;5125234;27;45223;-72
2022/09/02 07:21:44;;;;;;;;;18.00;15.33;;;;;;;;5125582;27;45320;-72
2022/09/02 07:24:10;;;;;;;;;16.00;15.00;;;;;;;;5125254;27;46372;-72
2022/09/02 07:26:36;;;;;;;;;16.33;14.67;;;;;;;;5125337;27;45667;-73
2022/09/02 07:29:01;;;;;;;;;16.33;12.00;;;;;;;;5125392;27;45370;-74
2022/09/02 07:31:28;;;;;;;;;17.00;14.33;;;;;;;;5125439;27;45371;-73
2022/09/02 07:33:57;;;;;;;;;14.33;14.33;;;;;;;;5124911;27;46365;-73
2022/09/02 07:36:24;;;;;;;;;14.67;13.67;;;;;;;;5124925;27;45421;-72
2022/09/02 07:38:49;;;;;;;;;21.00;17.00;;;;;;;;5125263;27;45497;-73
2022/09/02 07:41:14;;;;;;;;;16.33;14.00;;;;;;;;5125470;27;45141;-74
2022/09/02 07:43:40;;;;;;;;;15.00;13.00;;;;;;;;5124938;27;45607;-73
2022/09/02 07:46:05;;;;;;;;;15.67;14.67;;;;;;;;5124962;27;45215;-72
2022/09/02 07:48:30;;;;;;;;;16.67;15.33;;;;;;;;5125305;27;45408;-72
2022/09/02 07:50:57;;;;;;;;;15.00;12.67;;;;;;;;5125163;27;45219;-72
2022/09/02 07:53:22;;;;;;;;;16.33;14.00;;;;;;;;5124915;27;47321;-72
2022/09/02 07:55:48;;;;;;;;;15.00;15.00;;;;;;;;5124818;27;45201;-73
2022/09/02 07:58:14;;;;;;;;;14.67;14.67;;;;;;;;5125002;27;45366;-73
2022/09/02 08:00:40;;;;;;;;;18.00;17.00;;;;;;;;5125306;27;45534;-72
2022/09/02 08:03:06;;;;;;;;;16.00;13.33;;;;;;;;5124521;27;47043;-73
2022/09/02 08:05:32;;;;;;;;;18.00;15.67;;;;;;;;5124222;27;45299;-72
2022/09/02 08:07:59;;;;;;;;;18.33;15.67;;;;;;;;5124369;27;45438;-72
2022/09/02 08:10:27;;;;;;;;;13.33;12.67;;;;;;;;5106575;27;45314;-73
2022/09/02 08:12:53;;;;;;;;;16.33;16.00;;;;;;;;5124753;27;45318;-72
2022/09/02 08:15:21;;;;;;;;;15.67;13.33;;;;;;;;5124603;27;45228;-73
2022/09/02 08:17:47;;;;;;;;;14.00;14.00;;;;;;;;5106144;27;45272;-71
2022/09/02 08:20:13;;;;;;;;;14.00;14.00;;;;;;;;5124856;27;45425;-71
2022/09/02 08:22:38;;;;;;;;;14.00;13.33;;;;;;;;5124337;27;45973;-70
2022/09/02 08:25:04;;;;;;;;;14.33;14.00;;;;;;;;5124284;27;46222;-71
2022/09/02 08:27:31;;;;;;;;;11.67;11.67;;;;;;;;5120554;27;45291;-71
2022/09/02 08:29:56;;;;;;;;;13.33;13.33;;;;;;;;5121367;27;45603;-72
2022/09/02 08:32:21;;;;;;;;;11.33;10.00;;;;;;;;5121122;27;45988;-72
2022/09/02 08:34:46;;;;;;;;;15.33;15.00;;;;;;;;5120901;27;45205;-71
2022/09/02 08:37:12;;;;;;;;;15.67;14.00;;;;;;;;5121337;27;45314;-72
2022/09/02 08:39:37;;;;;;;;;12.33;11.00;;;;;;;;5120983;27;45249;-72
2022/09/02 08:42:18;;;;;;;;;15.67;12.00;;;;;;;;5120820;27;46596;-73
2022/09/02 08:44:44;;;;;;;;;13.67;11.00;;;;;;;;5121002;27;45320;-73
2022/09/02 08:47:12;;;;;;;;;14.67;13.00;;;;;;;;5119981;27;45380;-72
2022/09/02 08:49:40;;;;;;;;;14.67;12.33;;;;;;;;5120731;27;45822;-72
2022/09/02 08:52:06;;;;;;;;;19.00;18.00;;;;;;;;5120414;27;46232;-72
2022/09/02 08:54:44;;;;;;;;;12.67;10.00;;;;;;;;5120434;27;45483;-72
2022/09/02 08:57:10;;;;;;;;;15.00;11.67;;;;;;;;5119630;27;45349;-72
2022/09/02 08:59:36;;;;;;;;;12.67;12.67;;;;;;;;5120733;27;45422;-73
2022/09/02 09:02:23;;;;;;;;;12.00;10.33;;;;;;;;5120254;27;45373;-72
2022/09/02 09:04:51;;;;;;;;;12.33;12.33;;;;;;;;5120569;27;45424;-73
2022/09/02 09:07:27;;;;;;;;;12.33;11.67;;;;;;;;5120129;27;45472;-73
2022/09/02 09:10:03;;;;;;;;;14.33;14.00;;;;;;;;5120599;27;45500;-72
2022/09/02 09:12:53;;;;;;;;;13.00;11.00;;;;;;;;5120381;27;46511;-72
2022/09/02 09:15:37;;;;;;;;;12.33;12.33;;;;;;;;5121018;27;45419;-73
2022/09/02 09:18:05;;;;;;;;;9.67;9.67;;;;;;;;5120393;27;45248;-72
2022/09/02 09:20:32;;;;;;;;;15.67;11.33;;;;;;;;5120417;27;45375;-73
2022/09/02 09:22:59;;;;;;;;;9.00;9.00;;;;;;;;5120217;27;46136;-75
2022/09/02 09:25:31;;;;;;;;;16.00;12.33;;;;;;;;5120084;27;45316;-73
2022/09/02 09:27:59;;;;;;;;;12.67;11.00;;;;;;;;5115778;27;45525;-73
2022/09/02 09:30:25;;;;;;;;;13.00;13.00;;;;;;;;5098949;27;45497;-73
2022/09/02 09:32:59;;;;;;;;;10.33;10.33;;;;;;;;5098541;27;45359;-73
2022/09/02 09:35:26;;;;;;;;;12.00;12.00;;;;;;;;5098623;27;45429;-74
2022/09/02 09:37:52;;;;;;;;;13.67;9.67;;;;;;;;5097136;27;45397;-74
2022/09/02 09:40:19;;;;;;;;;11.00;11.00;;;;;;;;5098874;27;45389;-73
2022/09/02 09:42:45;;;;;;;;;7.67;7.00;;;;;;;;5098368;27;45375;-74
2022/09/02 09:45:16;;;;;;;;;11.33;11.00;;;;;;;;5098419;27;45905;-74
2022/09/02 09:47:41;;;;;;;;;15.67;11.33;;;;;;;;5098485;27;45639;-73
2022/09/02 09:50:11;;;;;;;;;13.00;13.00;;;;;;;;5098757;27;45413;-74
2022/09/02 09:52:36;;;;;;;;;12.33;12.33;;;;;;;;5097884;27;45511;-73
2022/09/02 09:55:08;;;;;;;;;12.67;11.33;;;;;;;;5098055;27;46702;-73
2022/09/02 09:57:34;;;;;;;;;10.00;10.00;;;;;;;;5098514;27;45363;-74
2022/09/02 10:00:03;;;;;;;;;8.33;7.00;;;;;;;;5098454;27;45321;-74
2022/09/02 10:02:28;;;;;;;;;12.00;11.67;;;;;;;;5097897;27;47498;-74
2022/09/02 10:05:08;;;;;;;;;8.67;8.67;;;;;;;;5097898;27;45319;-74
2022/09/02 10:07:41;;;;;;;;;8.33;8.33;;;;;;;;5097845;27;45418;-76
2022/09/02 10:10:16;;;;;;;;;12.67;12.00;;;;;;;;5098200;27;45446;-70
2022/09/02 10:12:41;;;;;;;;;11.67;11.67;;;;;;;;5097508;27;47114;-73
2022/09/02 10:15:08;;;;;;;;;9.33;9.33;;;;;;;;5097923;27;45375;-73
2022/09/02 10:17:33;;;;;;;;;9.00;8.67;;;;;;;;5098265;27;45449;-73
2022/09/02 10:20:10;;;;;;;;;10.00;8.00;;;;;;;;5098322;27;45311;-73
2022/09/02 10:22:54;;;;;;;;;7.33;7.33;;;;;;;;5097570;27;47080;-73
2022/09/02 10:25:22;;;;;;;;;13.25;10.75;;;;;;;;5097896;27;45371;-73
2022/09/02 10:27:59;;;;;;;;;11.75;9.75;;;;;;;;5097361;27;45453;-73
2022/09/02 10:30:25;;;;;;;;;11.50;9.25;;;;;;;;5107542;27;45370;-73
2022/09/02 10:32:50;;;;;;;;;8.50;7.50;;;;;;;;5118004;27;45350;-73
2022/09/02 10:35:25;;;;;;;;;8.25;8.25;;;;;;;;5117898;27;45593;-73
2022/09/02 10:38:16;;;;;;;;;8.25;7.75;;;;;;;;5118402;27;45474;-77
2022/09/02 10:41:07;;;;;;;;;10.25;10.25;;;;;;;;5113974;27;45363;-74
2022/09/02 10:43:47;;;;;;;;;9.75;7.25;;;;;;;;5085698;27;46411;-73
2022/09/02 10:46:16;;;;;;;;;10.75;9.00;;;;;;;;5117915;27;45330;-74
2022/09/02 10:48:50;;;;;;;;;9.50;9.50;;;;;;;;5117816;27;45383;-74
2022/09/02 10:51:25;;;;;;;;;11.25;9.25;;;;;;;;5118433;27;45390;-71
2022/09/02 10:54:02;;;;;;;;;9.33;7.67;;;;;;;;5117639;27;46158;-74
2022/09/02 10:56:49;;;;;;;;;8.00;8.00;;;;;;;;5117777;27;45507;-69
2022/09/02 10:59:37;;;;;;;;;8.00;6.67;;;;;;;;5118101;27;45357;-73
2022/09/02 11:02:10;;;;;;;;;8.00;8.00;;;;;;;;5054812;28;45427;-71
2022/09/02 11:05:13;;;;;;;;;6.00;6.00;;;;;;;;5053076;28;46403;-66
2022/09/02 11:07:39;;;;;;;;;8.00;8.00;;;;;;;;4994450;28;45494;-72
2022/09/02 11:10:10;;;;;;;;;8.67;8.67;;;;;;;;4994405;28;45395;-71
2022/09/02 11:12:39;;;;;;;;;11.00;9.67;;;;;;;;4994724;28;45573;-71
2022/09/02 11:15:20;;;;;;;;;9.67;9.67;;;;;;;;4994072;28;45482;-71
2022/09/02 11:17:49;;;;;;;;;7.67;7.67;;;;;;;;4995218;28;45363;-71
2022/09/02 11:20:23;;;;;;;;;8.00;8.00;;;;;;;;4994477;28;45431;-80
2022/09/02 11:22:49;;;;;;;;;13.00;11.67;;;;;;;;4992202;28;45470;-79
2022/09/02 11:25:14;;;;;;;;;9.67;9.67;;;;;;;;4994107;28;45559;-78
2022/09/02 11:27:42;;;;;;;;;13.67;12.33;;;;;;;;4994460;28;45506;-84
2022/09/02 11:30:11;;;;;;;;;12.33;11.00;;;;;;;;4994364;28;45367;-79
2022/09/02 11:32:49;;;;;;;;;12.67;9.33;;;;;;;;4994215;28;45432;-74
2022/09/02 11:35:36;;;;;;;;;10.00;10.00;;;;;;;;4993745;28;47146;-75
2022/09/02 11:38:28;;;;;;;;;11.67;10.00;;;;;;;;5018502;27;45363;-78
2022/09/02 11:40:56;;;;;;;;;10.67;10.67;;;;;;;;5053931;28;45543;-73
2022/09/02 11:43:23;;;;;;;;;11.00;10.00;;;;;;;;5054166;28;45464;-80
2022/09/02 11:45:55;;;;;;;;;11.00;9.00;;;;;;;;5053992;28;46049;-69
2022/09/02 11:48:29;;;;;;;;;12.00;10.67;;;;;;;;5053856;28;45470;-78
2022/09/02 11:51:07;;;;;;;;;13.00;12.67;;;;;;;;5053772;28;45605;-76
2022/09/02 11:53:43;;;;;;;;;10.67;10.67;;;;;;;;5053906;28;45448;-71
2022/09/02 11:56:24;;;;;;;;;11.00;11.00;;;;;;;;5053588;28;45476;-72
2022/09/02 11:58:51;;;;;;;;;11.67;9.33;;;;;;;;5053858;28;45435;-73
2022/09/02 12:01:17;;;;;;;;;11.67;9.67;;;;;;;;5054868;28;45392;-74
2022/09/02 12:03:49;;;;;;;;;12.00;12.00;;;;;;;;5057441;28;45461;-70
2022/09/02 12:06:18;;;;;;;;;10.00;10.00;;;;;;;;5057260;28;47021;-78
2022/09/02 12:08:43;;;;;;;;;9.33;9.33;;;;;;;;5056773;28;45935;-68
2022/09/02 12:11:28;;;;;;;;;10.67;10.33;;;;;;;;5040249;28;45808;-73
2022/09/02 12:13:54;;;;;;;;;16.00;10.33;;;;;;;;5057258;28;45437;-70
2022/09/02 12:16:22;;;;;;;;;7.67;7.67;;;;;;;;5056815;28;45865;-69
2022/09/02 12:18:52;;;;;;;;;11.33;11.33;;;;;;;;5098041;27;45400;-76
2022/09/02 12:21:19;;;;;;;;;10.33;9.33;;;;;;;;5100188;27;45405;-74
2022/09/02 12:23:47;;;;;;;;;10.00;10.00;;;;;;;;5115106;27;45774;-71
2022/09/02 12:26:13;;;;;;;;;10.67;10.67;;;;;;;;5120280;27;45395;-73
2022/09/02 12:28:40;;;;;;;;;11.00;8.67;;;;;;;;5120453;27;45770;-75
2022/09/02 12:31:07;;;;;;;;;18.00;14.00;;;;;;;;5120689;27;45527;-75
2022/09/02 12:33:32;;;;;;;;;10.00;9.00;;;;;;;;5120309;27;45449;-75
2022/09/02 12:35:58;;;;;;;;;10.33;10.00;;;;;;;;5120128;27;46038;-66
2022/09/02 12:38:37;;;;;;;;;7.00;7.00;;;;;;;;5120453;27;45447;-67
2022/09/02 12:41:05;;;;;;;;;5.67;5.67;;;;;;;;5120548;27;45242;-76
2022/09/02 12:43:35;;;;;;;;;9.33;9.33;;;;;;;;5120763;27;45437;-81
2022/09/02 12:46:19;;;;;;;;;8.33;8.33;;;;;;;;5120192;27;45389;-79
2022/09/02 12:48:49;;;;;;;;;9.00;8.00;;;;;;;;5120063;27;45426;-70
2022/09/02 12:51:34;;;;;;;;;9.00;8.00;;;;;;;;5120324;27;45669;-76
2022/09/02 12:54:00;;;;;;;;;11.33;9.33;;;;;;;;5120118;27;45407;-71
2022/09/02 12:56:25;;;;;;;;;8.00;8.00;;;;;;;;5119765;27;47060;-66
2022/09/02 12:58:52;;;;;;;;;13.33;12.00;;;;;;;;5119871;27;45455;-68
2022/09/02 13:01:45;;;;;;;;;11.00;9.33;;;;;;;;5119946;27;45434;-68
2022/09/02 13:04:29;;;;;;;;;17.00;15.67;;;;;;;;5120218;27;45495;-75
2022/09/02 13:07:13;;;;;;;;;13.33;12.67;;;;;;;;5119635;27;46419;-68
2022/09/02 13:09:53;;;;;;;;;9.67;9.67;;;;;;;;5119402;27;45385;-72
2022/09/02 13:12:21;;;;;;;;;9.00;8.00;;;;;;;;5119280;27;45770;-70
2022/09/02 13:15:04;;;;;;;;;0.00;0.00;;;;;;;;5120057;27;45454;-74
2022/09/02 13:17:45;;;;;;;;;8.33;8.33;;;;;;;;5119545;27;46613;-69
2022/09/02 13:20:11;;;;;;;;;5.67;5.33;;;;;;;;5119567;27;45395;-70
2022/09/02 13:22:48;;;;;;;;;6.33;5.33;;;;;;;;5116657;27;45519;-81
2022/09/02 13:25:20;;;;;;;;;6.00;6.00;;;;;;;;5106819;27;45314;-79
2022/09/02 13:28:05;;;;;;;;;8.00;7.00;;;;;;;;5106192;27;46545;-72
2022/09/02 13:30:33;;;;;;;;;7.00;7.00;;;;;;;;5055657;28;45620;-75
2022/09/02 13:33:03;;;;;;;;;5.67;5.00;;;;;;;;5055817;28;45442;-75
2022/09/02 13:35:29;;;;;;;;;6.33;6.33;;;;;;;;5055484;28;45432;-71
2022/09/02 13:37:59;;;;;;;;;7.33;5.33;;;;;;;;5044397;28;45833;-77
2022/09/02 13:40:32;;;;;;;;;5.00;5.00;;;;;;;;5054397;28;45468;-70
2022/09/02 13:43:00;;;;;;;;;5.00;5.00;;;;;;;;5049034;28;45497;-76
2022/09/02 13:45:26;;;;;;;;;7.00;7.00;;;;;;;;5036188;28;45449;-71
2022/09/02 13:47:56;;;;;;;;;6.00;6.00;;;;;;;;5050327;28;46265;-80
2022/09/02 13:50:25;;;;;;;;;7.67;6.33;;;;;;;;5055640;28;45943;-78
2022/09/02 13:52:53;;;;;;;;;7.00;7.00;;;;;;;;5055778;28;45754;-75
2022/09/02 13:55:19;;;;;;;;;10.00;8.33;;;;;;;;5055268;28;45492;-78
2022/09/02 13:57:51;;;;;;;;;13.33;10.33;;;;;;;;5055095;28;46485;-76
2022/09/02 14:00:30;;;;;;;;;10.33;8.00;;;;;;;;5055357;28;45423;-74
2022/09/02 14:02:57;;;;;;;;;8.67;8.67;;;;;;;;5055688;28;45870;-76
2022/09/02 14:05:23;;;;;;;;;7.67;7.67;;;;;;;;5055663;28;45487;-76
2022/09/02 14:07:50;;;;;;;;;11.00;11.00;;;;;;;;5091515;27;46500;-75
2022/09/02 14:10:17;;;;;;;;;9.00;9.00;;;;;;;;5118708;27;45453;-75
2022/09/02 14:12:44;;;;;;;;;6.00;6.00;;;;;;;;5118974;27;45480;-75
2022/09/02 14:15:11;;;;;;;;;6.67;6.67;;;;;;;;5118010;27;45471;-75
2022/09/02 14:17:37;;;;;;;;;7.00;7.00;;;;;;;;5118555;27;45430;-75
2022/09/02 14:20:17;;;;;;;;;9.00;7.00;;;;;;;;5118799;27;45426;-75
2022/09/02 14:22:43;;;;;;;;;7.00;7.00;;;;;;;;5110518;27;45450;-74
2022/09/02 14:25:17;;;;;;;;;8.00;7.00;;;;;;;;5097288;27;45425;-75
2022/09/02 14:28:12;;;;;;;;;5.67;5.00;;;;;;;;5107979;27;46508;-74
2022/09/02 14:30:38;;;;;;;;;11.33;11.00;;;;;;;;5054684;28;45442;-74
2022/09/02 14:33:22;;;;;;;;;7.00;7.00;;;;;;;;5055173;28;45434;-76
2022/09/02 14:35:56;;;;;;;;;5.00;5.00;;;;;;;;5054896;28;45534;-76
2022/09/02 14:38:22;;;;;;;;;5.00;5.00;;;;;;;;5054762;28;46083;-74
2022/09/02 14:40:47;;;;;;;;;7.33;7.33;;;;;;;;5054279;28;45397;-75
2022/09/02 14:43:14;;;;;;;;;4.00;4.00;;;;;;;;5055146;28;45436;-72